sensor_id;sensor_type;location;lat;lon;timestamp;P1;durP1;ratioP1;P2;durP2;ratioP2
59756;SDS011;45631;51.962;5.974;2023-04-12T00:00:03;7.93;;;1.73;;
59756;SDS011;45631;51.962;5.974;2023-04-12T00:02:35;5.72;;;1.52;;
59756;SDS011;45631;51.962;5.974;2023-04-12T00:05:05;9.32;;;2.25;;
59756;SDS011;45631;51.962;5.974;2023-04-12T00:07:35;10.02;;;2.03;;
59756;SDS011;45631;51.962;5.974;2023-04-12T00:10:04;11.75;;;2.10;;
59756;SDS011;45631;51.962;5.974;2023-04-12T00:12:35;6.53;;;1.80;;
59756;SDS011;45631;51.962;5.974;2023-04-12T00:15:03;8.65;;;1.70;;
59756;SDS011;45631;51.962;5.974;2023-04-12T00:17:36;11.77;;;3.03;;
59756;SDS011;45631;51.962;5.974;2023-04-12T00:20:05;10.30;;;2.20;;
59756;SDS011;45631;51.962;5.974;2023-04-12T00:22:38;8.90;;;2.53;;
59756;SDS011;45631;51.962;5.974;2023-04-12T00:25:07;12.27;;;2.72;;
59756;SDS011;45631;51.962;5.974;2023-04-12T00:27:36;7.38;;;2.22;;
59756;SDS011;45631;51.962;5.974;2023-04-12T00:30:05;10.13;;;2.10;;
59756;SDS011;45631;51.962;5.974;2023-04-12T00:32:34;9.60;;;2.50;;
59756;SDS011;45631;51.962;5.974;2023-04-12T00:35:02;7.95;;;2.20;;
59756;SDS011;45631;51.962;5.974;2023-04-12T00:37:31;9.00;;;2.33;;
59756;SDS011;45631;51.962;5.974;2023-04-12T00:40:01;6.90;;;2.28;;
59756;SDS011;45631;51.962;5.974;2023-04-12T00:42:32;7.03;;;1.83;;
59756;SDS011;45631;51.962;5.974;2023-04-12T00:45:03;7.18;;;2.10;;
59756;SDS011;45631;51.962;5.974;2023-04-12T00:47:33;9.40;;;2.17;;
59756;SDS011;45631;51.962;5.974;2023-04-12T00:50:02;9.25;;;2.03;;
59756;SDS011;45631;51.962;5.974;2023-04-12T00:52:31;5.35;;;1.70;;
59756;SDS011;45631;51.962;5.974;2023-04-12T00:55:01;10.48;;;2.38;;
59756;SDS011;45631;51.962;5.974;2023-04-12T00:57:32;10.25;;;1.83;;
59756;SDS011;45631;51.962;5.974;2023-04-12T01:00:03;9.93;;;2.30;;
59756;SDS011;45631;51.962;5.974;2023-04-12T01:02:36;6.85;;;2.05;;
59756;SDS011;45631;51.962;5.974;2023-04-12T01:05:07;11.77;;;2.83;;
59756;SDS011;45631;51.962;5.974;2023-04-12T01:07:44;8.23;;;2.28;;
59756;SDS011;45631;51.962;5.974;2023-04-12T01:10:23;9.65;;;2.20;;
59756;SDS011;45631;51.962;5.974;2023-04-12T01:13:01;8.75;;;1.80;;
59756;SDS011;45631;51.962;5.974;2023-04-12T01:15:40;5.63;;;2.05;;
59756;SDS011;45631;51.962;5.974;2023-04-12T01:18:18;8.63;;;2.00;;
59756;SDS011;45631;51.962;5.974;2023-04-12T01:20:51;4.03;;;1.38;;
59756;SDS011;45631;51.962;5.974;2023-04-12T01:23:28;7.47;;;1.20;;
59756;SDS011;45631;51.962;5.974;2023-04-12T01:26:18;4.97;;;1.40;;
59756;SDS011;45631;51.962;5.974;2023-04-12T01:29:01;6.72;;;1.77;;
59756;SDS011;45631;51.962;5.974;2023-04-12T01:31:34;4.57;;;1.80;;
59756;SDS011;45631;51.962;5.974;2023-04-12T01:34:07;8.32;;;2.03;;
59756;SDS011;45631;51.962;5.974;2023-04-12T01:36:37;6.20;;;1.73;;
59756;SDS011;45631;51.962;5.974;2023-04-12T01:39:07;10.77;;;1.80;;
59756;SDS011;45631;51.962;5.974;2023-04-12T01:41:38;4.07;;;1.50;;
59756;SDS011;45631;51.962;5.974;2023-04-12T01:44:13;6.32;;;1.45;;
59756;SDS011;45631;51.962;5.974;2023-04-12T01:46:42;7.57;;;1.90;;
59756;SDS011;45631;51.962;5.974;2023-04-12T01:49:12;7.45;;;1.92;;
59756;SDS011;45631;51.962;5.974;2023-04-12T01:51:44;8.20;;;1.88;;
59756;SDS011;45631;51.962;5.974;2023-04-12T01:54:17;8.00;;;2.10;;
59756;SDS011;45631;51.962;5.974;2023-04-12T01:56:49;4.95;;;1.70;;
59756;SDS011;45631;51.962;5.974;2023-04-12T01:59:26;7.55;;;2.05;;
59756;SDS011;45631;51.962;5.974;2023-04-12T02:01:58;7.65;;;2.15;;
59756;SDS011;45631;51.962;5.974;2023-04-12T02:04:27;10.82;;;2.10;;
59756;SDS011;45631;51.962;5.974;2023-04-12T02:06:56;10.68;;;3.08;;
59756;SDS011;45631;51.962;5.974;2023-04-12T02:09:25;12.30;;;2.13;;
59756;SDS011;45631;51.962;5.974;2023-04-12T02:11:53;9.75;;;2.50;;
59756;SDS011;45631;51.962;5.974;2023-04-12T02:14:21;6.85;;;2.00;;
59756;SDS011;45631;51.962;5.974;2023-04-12T02:16:51;9.18;;;1.80;;
59756;SDS011;45631;51.962;5.974;2023-04-12T02:19:20;6.85;;;1.75;;
59756;SDS011;45631;51.962;5.974;2023-04-12T02:21:48;8.75;;;1.83;;
59756;SDS011;45631;51.962;5.974;2023-04-12T02:24:17;7.57;;;2.17;;
59756;SDS011;45631;51.962;5.974;2023-04-12T02:26:46;5.03;;;1.70;;
59756;SDS011;45631;51.962;5.974;2023-04-12T02:29:15;7.00;;;1.65;;
59756;SDS011;45631;51.962;5.974;2023-04-12T02:31:43;6.55;;;1.67;;
59756;SDS011;45631;51.962;5.974;2023-04-12T02:34:13;5.35;;;1.50;;
59756;SDS011;45631;51.962;5.974;2023-04-12T02:36:45;10.10;;;1.70;;
59756;SDS011;45631;51.962;5.974;2023-04-12T02:39:13;9.32;;;1.85;;
59756;SDS011;45631;51.962;5.974;2023-04-12T02:41:46;11.98;;;1.95;;
59756;SDS011;45631;51.962;5.974;2023-04-12T02:44:14;7.32;;;2.05;;
59756;SDS011;45631;51.962;5.974;2023-04-12T02:46:42;6.30;;;2.10;;
59756;SDS011;45631;51.962;5.974;2023-04-12T02:49:13;10.63;;;2.30;;
59756;SDS011;45631;51.962;5.974;2023-04-12T02:51:41;11.88;;;2.28;;
59756;SDS011;45631;51.962;5.974;2023-04-12T02:54:09;8.23;;;2.50;;
59756;SDS011;45631;51.962;5.974;2023-04-12T02:56:38;6.40;;;2.05;;
59756;SDS011;45631;51.962;5.974;2023-04-12T02:59:06;7.03;;;2.65;;
59756;SDS011;45631;51.962;5.974;2023-04-12T03:01:34;8.65;;;2.03;;
59756;SDS011;45631;51.962;5.974;2023-04-12T03:04:04;5.88;;;2.50;;
59756;SDS011;45631;51.962;5.974;2023-04-12T03:06:34;6.57;;;2.08;;
59756;SDS011;45631;51.962;5.974;2023-04-12T03:09:02;7.18;;;2.10;;
59756;SDS011;45631;51.962;5.974;2023-04-12T03:11:31;5.82;;;2.25;;
59756;SDS011;45631;51.962;5.974;2023-04-12T03:13:59;4.93;;;1.85;;
59756;SDS011;45631;51.962;5.974;2023-04-12T03:16:27;6.43;;;1.83;;
59756;SDS011;45631;51.962;5.974;2023-04-12T03:18:55;5.65;;;2.17;;
59756;SDS011;45631;51.962;5.974;2023-04-12T03:21:24;8.10;;;2.35;;
59756;SDS011;45631;51.962;5.974;2023-04-12T03:23:55;8.98;;;2.22;;
59756;SDS011;45631;51.962;5.974;2023-04-12T03:26:23;7.78;;;1.83;;
59756;SDS011;45631;51.962;5.974;2023-04-12T03:28:58;5.18;;;2.05;;
59756;SDS011;45631;51.962;5.974;2023-04-12T03:31:30;8.95;;;2.53;;
59756;SDS011;45631;51.962;5.974;2023-04-12T03:33:58;6.55;;;2.42;;
59756;SDS011;45631;51.962;5.974;2023-04-12T03:36:27;6.88;;;2.08;;
59756;SDS011;45631;51.962;5.974;2023-04-12T03:38:58;7.18;;;2.22;;
59756;SDS011;45631;51.962;5.974;2023-04-12T03:41:27;6.93;;;1.75;;
59756;SDS011;45631;51.962;5.974;2023-04-12T03:43:55;5.60;;;1.83;;
59756;SDS011;45631;51.962;5.974;2023-04-12T03:46:24;5.47;;;1.80;;
59756;SDS011;45631;51.962;5.974;2023-04-12T03:48:53;7.70;;;2.20;;
59756;SDS011;45631;51.962;5.974;2023-04-12T03:51:23;7.03;;;2.05;;
59756;SDS011;45631;51.962;5.974;2023-04-12T03:53:52;6.97;;;1.88;;
59756;SDS011;45631;51.962;5.974;2023-04-12T03:56:22;4.40;;;1.67;;
59756;SDS011;45631;51.962;5.974;2023-04-12T03:58:50;6.97;;;1.90;;
59756;SDS011;45631;51.962;5.974;2023-04-12T04:01:19;6.80;;;1.95;;
59756;SDS011;45631;51.962;5.974;2023-04-12T04:03:47;5.18;;;1.77;;
59756;SDS011;45631;51.962;5.974;2023-04-12T04:06:18;6.10;;;1.77;;
59756;SDS011;45631;51.962;5.974;2023-04-12T04:08:46;8.38;;;2.20;;
59756;SDS011;45631;51.962;5.974;2023-04-12T04:11:15;4.93;;;1.98;;
59756;SDS011;45631;51.962;5.974;2023-04-12T04:13:44;5.07;;;1.63;;
59756;SDS011;45631;51.962;5.974;2023-04-12T04:16:13;5.70;;;2.72;;
59756;SDS011;45631;51.962;5.974;2023-04-12T04:18:41;6.18;;;2.22;;
59756;SDS011;45631;51.962;5.974;2023-04-12T04:21:11;8.77;;;2.30;;
59756;SDS011;45631;51.962;5.974;2023-04-12T04:23:40;7.22;;;1.90;;
59756;SDS011;45631;51.962;5.974;2023-04-12T04:26:10;7.72;;;1.70;;
59756;SDS011;45631;51.962;5.974;2023-04-12T04:28:39;8.35;;;2.35;;
59756;SDS011;45631;51.962;5.974;2023-04-12T04:31:14;5.78;;;1.60;;
59756;SDS011;45631;51.962;5.974;2023-04-12T04:33:43;7.55;;;2.17;;
59756;SDS011;45631;51.962;5.974;2023-04-12T04:36:12;9.73;;;2.30;;
59756;SDS011;45631;51.962;5.974;2023-04-12T04:38:43;5.05;;;1.85;;
59756;SDS011;45631;51.962;5.974;2023-04-12T04:41:13;5.82;;;2.10;;
59756;SDS011;45631;51.962;5.974;2023-04-12T04:43:43;6.65;;;2.33;;
59756;SDS011;45631;51.962;5.974;2023-04-12T04:46:13;8.50;;;2.10;;
59756;SDS011;45631;51.962;5.974;2023-04-12T04:48:42;8.25;;;3.00;;
59756;SDS011;45631;51.962;5.974;2023-04-12T04:51:11;6.70;;;2.15;;
59756;SDS011;45631;51.962;5.974;2023-04-12T04:53:40;6.63;;;2.25;;
59756;SDS011;45631;51.962;5.974;2023-04-12T04:56:08;6.55;;;2.65;;
59756;SDS011;45631;51.962;5.974;2023-04-12T04:58:37;8.35;;;2.85;;
59756;SDS011;45631;51.962;5.974;2023-04-12T05:01:09;9.55;;;2.80;;
59756;SDS011;45631;51.962;5.974;2023-04-12T05:03:40;8.93;;;2.65;;
59756;SDS011;45631;51.962;5.974;2023-04-12T05:06:10;9.82;;;2.40;;
59756;SDS011;45631;51.962;5.974;2023-04-12T05:08:38;6.82;;;2.85;;
59756;SDS011;45631;51.962;5.974;2023-04-12T05:11:06;5.85;;;2.65;;
59756;SDS011;45631;51.962;5.974;2023-04-12T05:13:34;9.35;;;2.80;;
59756;SDS011;45631;51.962;5.974;2023-04-12T05:16:04;8.57;;;2.95;;
59756;SDS011;45631;51.962;5.974;2023-04-12T05:18:33;7.43;;;2.88;;
59756;SDS011;45631;51.962;5.974;2023-04-12T05:21:03;6.80;;;2.83;;
59756;SDS011;45631;51.962;5.974;2023-04-12T05:23:33;8.10;;;2.50;;
59756;SDS011;45631;51.962;5.974;2023-04-12T05:26:02;7.22;;;2.78;;
59756;SDS011;45631;51.962;5.974;2023-04-12T05:28:31;5.75;;;2.30;;
59756;SDS011;45631;51.962;5.974;2023-04-12T05:30:59;6.50;;;2.47;;
59756;SDS011;45631;51.962;5.974;2023-04-12T05:33:27;8.43;;;3.05;;
59756;SDS011;45631;51.962;5.974;2023-04-12T05:35:58;6.90;;;3.13;;
59756;SDS011;45631;51.962;5.974;2023-04-12T05:38:28;7.43;;;3.05;;
59756;SDS011;45631;51.962;5.974;2023-04-12T05:40:56;7.40;;;3.03;;
59756;SDS011;45631;51.962;5.974;2023-04-12T05:43:24;8.02;;;2.97;;
59756;SDS011;45631;51.962;5.974;2023-04-12T05:45:52;7.85;;;3.17;;
59756;SDS011;45631;51.962;5.974;2023-04-12T05:48:20;6.35;;;3.45;;
59756;SDS011;45631;51.962;5.974;2023-04-12T05:50:49;10.25;;;3.60;;
59756;SDS011;45631;51.962;5.974;2023-04-12T05:53:17;7.13;;;2.80;;
59756;SDS011;45631;51.962;5.974;2023-04-12T05:55:47;6.90;;;3.17;;
59756;SDS011;45631;51.962;5.974;2023-04-12T05:58:17;6.25;;;2.80;;
59756;SDS011;45631;51.962;5.974;2023-04-12T06:00:47;7.88;;;3.08;;
59756;SDS011;45631;51.962;5.974;2023-04-12T06:03:15;4.95;;;2.70;;
59756;SDS011;45631;51.962;5.974;2023-04-12T06:05:44;7.65;;;3.13;;
59756;SDS011;45631;51.962;5.974;2023-04-12T06:08:14;6.55;;;3.35;;
59756;SDS011;45631;51.962;5.974;2023-04-12T06:10:42;5.63;;;3.33;;
59756;SDS011;45631;51.962;5.974;2023-04-12T06:13:12;7.70;;;3.15;;
59756;SDS011;45631;51.962;5.974;2023-04-12T06:15:40;7.45;;;3.60;;
59756;SDS011;45631;51.962;5.974;2023-04-12T06:18:08;7.43;;;4.05;;
59756;SDS011;45631;51.962;5.974;2023-04-12T06:20:39;6.88;;;3.25;;
59756;SDS011;45631;51.962;5.974;2023-04-12T06:23:10;7.20;;;3.17;;
59756;SDS011;45631;51.962;5.974;2023-04-12T06:25:38;6.40;;;3.10;;
59756;SDS011;45631;51.962;5.974;2023-04-12T06:28:06;6.32;;;3.30;;
59756;SDS011;45631;51.962;5.974;2023-04-12T06:30:36;6.15;;;2.88;;
59756;SDS011;45631;51.962;5.974;2023-04-12T06:33:04;7.03;;;2.83;;
59756;SDS011;45631;51.962;5.974;2023-04-12T06:35:32;7.40;;;3.00;;
59756;SDS011;45631;51.962;5.974;2023-04-12T06:38:00;5.80;;;2.58;;
59756;SDS011;45631;51.962;5.974;2023-04-12T06:40:29;7.45;;;2.75;;
59756;SDS011;45631;51.962;5.974;2023-04-12T06:42:57;6.75;;;2.60;;
59756;SDS011;45631;51.962;5.974;2023-04-12T06:45:27;4.97;;;2.40;;
59756;SDS011;45631;51.962;5.974;2023-04-12T06:47:57;5.50;;;2.38;;
59756;SDS011;45631;51.962;5.974;2023-04-12T06:50:25;5.90;;;2.10;;
59756;SDS011;45631;51.962;5.974;2023-04-12T06:52:53;6.45;;;2.33;;
59756;SDS011;45631;51.962;5.974;2023-04-12T06:55:23;5.35;;;2.50;;
59756;SDS011;45631;51.962;5.974;2023-04-12T06:57:52;5.95;;;2.58;;
59756;SDS011;45631;51.962;5.974;2023-04-12T07:00:21;6.38;;;2.40;;
59756;SDS011;45631;51.962;5.974;2023-04-12T07:02:49;5.90;;;2.35;;
59756;SDS011;45631;51.962;5.974;2023-04-12T07:05:19;6.13;;;2.30;;
59756;SDS011;45631;51.962;5.974;2023-04-12T07:07:47;9.80;;;2.60;;
59756;SDS011;45631;51.962;5.974;2023-04-12T07:10:16;6.70;;;2.47;;
59756;SDS011;45631;51.962;5.974;2023-04-12T07:12:44;3.05;;;1.70;;
59756;SDS011;45631;51.962;5.974;2023-04-12T07:15:12;5.10;;;2.00;;
59756;SDS011;45631;51.962;5.974;2023-04-12T07:17:40;4.95;;;1.77;;
59756;SDS011;45631;51.962;5.974;2023-04-12T07:20:09;4.50;;;2.00;;
59756;SDS011;45631;51.962;5.974;2023-04-12T07:22:39;5.35;;;2.15;;
59756;SDS011;45631;51.962;5.974;2023-04-12T07:25:07;4.97;;;2.08;;
59756;SDS011;45631;51.962;5.974;2023-04-12T07:27:36;6.20;;;2.53;;
59756;SDS011;45631;51.962;5.974;2023-04-12T07:30:04;6.00;;;3.10;;
59756;SDS011;45631;51.962;5.974;2023-04-12T07:32:33;6.57;;;3.17;;
59756;SDS011;45631;51.962;5.974;2023-04-12T07:35:02;4.75;;;2.63;;
59756;SDS011;45631;51.962;5.974;2023-04-12T07:37:32;4.95;;;1.95;;
59756;SDS011;45631;51.962;5.974;2023-04-12T07:40:02;5.22;;;2.53;;
59756;SDS011;45631;51.962;5.974;2023-04-12T07:42:32;4.85;;;2.47;;
59756;SDS011;45631;51.962;5.974;2023-04-12T07:45:00;4.80;;;2.42;;
59756;SDS011;45631;51.962;5.974;2023-04-12T07:47:28;6.45;;;2.70;;
59756;SDS011;45631;51.962;5.974;2023-04-12T07:49:56;5.65;;;2.70;;
59756;SDS011;45631;51.962;5.974;2023-04-12T07:52:24;4.93;;;2.38;;
59756;SDS011;45631;51.962;5.974;2023-04-12T07:54:55;5.20;;;2.90;;
59756;SDS011;45631;51.962;5.974;2023-04-12T07:57:24;6.68;;;2.53;;
59756;SDS011;45631;51.962;5.974;2023-04-12T07:59:53;5.65;;;2.85;;
59756;SDS011;45631;51.962;5.974;2023-04-12T08:02:22;6.35;;;2.97;;
59756;SDS011;45631;51.962;5.974;2023-04-12T08:04:51;5.70;;;3.00;;
59756;SDS011;45631;51.962;5.974;2023-04-12T08:07:22;6.75;;;3.13;;
59756;SDS011;45631;51.962;5.974;2023-04-12T08:09:52;5.82;;;2.90;;
59756;SDS011;45631;51.962;5.974;2023-04-12T08:12:20;6.90;;;2.78;;
59756;SDS011;45631;51.962;5.974;2023-04-12T08:14:50;7.30;;;3.00;;
59756;SDS011;45631;51.962;5.974;2023-04-12T08:17:20;9.55;;;3.03;;
59756;SDS011;45631;51.962;5.974;2023-04-12T08:19:51;6.32;;;2.90;;
59756;SDS011;45631;51.962;5.974;2023-04-12T08:22:19;9.48;;;3.17;;
59756;SDS011;45631;51.962;5.974;2023-04-12T08:24:50;6.72;;;2.63;;
59756;SDS011;45631;51.962;5.974;2023-04-12T08:27:18;9.10;;;2.75;;
59756;SDS011;45631;51.962;5.974;2023-04-12T08:29:46;6.50;;;2.50;;
59756;SDS011;45631;51.962;5.974;2023-04-12T08:32:16;6.80;;;2.97;;
59756;SDS011;45631;51.962;5.974;2023-04-12T08:34:44;8.57;;;2.88;;
59756;SDS011;45631;51.962;5.974;2023-04-12T08:37:12;7.50;;;2.58;;
59756;SDS011;45631;51.962;5.974;2023-04-12T08:39:40;5.95;;;2.10;;
59756;SDS011;45631;51.962;5.974;2023-04-12T08:42:08;7.22;;;2.00;;
59756;SDS011;45631;51.962;5.974;2023-04-12T08:44:40;10.15;;;2.22;;
59756;SDS011;45631;51.962;5.974;2023-04-12T08:47:09;8.80;;;1.90;;
59756;SDS011;45631;51.962;5.974;2023-04-12T08:49:39;7.18;;;2.50;;
59756;SDS011;45631;51.962;5.974;2023-04-12T08:52:08;7.07;;;2.20;;
59756;SDS011;45631;51.962;5.974;2023-04-12T08:54:36;10.48;;;2.60;;
59756;SDS011;45631;51.962;5.974;2023-04-12T08:57:05;10.20;;;2.20;;
59756;SDS011;45631;51.962;5.974;2023-04-12T08:59:35;10.27;;;2.00;;
59756;SDS011;45631;51.962;5.974;2023-04-12T09:02:05;10.10;;;2.05;;
59756;SDS011;45631;51.962;5.974;2023-04-12T09:04:47;9.40;;;1.98;;
59756;SDS011;45631;51.962;5.974;2023-04-12T09:07:16;7.45;;;2.17;;
59756;SDS011;45631;51.962;5.974;2023-04-12T09:09:45;8.15;;;2.33;;
59756;SDS011;45631;51.962;5.974;2023-04-12T09:12:14;9.82;;;2.30;;
59756;SDS011;45631;51.962;5.974;2023-04-12T09:14:45;6.00;;;1.92;;
59756;SDS011;45631;51.962;5.974;2023-04-12T09:17:20;8.18;;;2.45;;
59756;SDS011;45631;51.962;5.974;2023-04-12T09:19:51;10.40;;;2.00;;
59756;SDS011;45631;51.962;5.974;2023-04-12T09:22:31;7.80;;;2.10;;
59756;SDS011;45631;51.962;5.974;2023-04-12T09:25:00;12.25;;;2.47;;
59756;SDS011;45631;51.962;5.974;2023-04-12T09:27:29;14.85;;;2.50;;
59756;SDS011;45631;51.962;5.974;2023-04-12T09:30:06;9.50;;;2.00;;
59756;SDS011;45631;51.962;5.974;2023-04-12T09:32:34;13.40;;;2.13;;
59756;SDS011;45631;51.962;5.974;2023-04-12T09:35:05;12.20;;;2.17;;
59756;SDS011;45631;51.962;5.974;2023-04-12T09:37:34;13.30;;;2.42;;
59756;SDS011;45631;51.962;5.974;2023-04-12T09:40:03;12.45;;;2.30;;
59756;SDS011;45631;51.962;5.974;2023-04-12T09:42:33;13.60;;;2.70;;
59756;SDS011;45631;51.962;5.974;2023-04-12T09:45:17;12.20;;;2.65;;
59756;SDS011;45631;51.962;5.974;2023-04-12T09:47:47;11.27;;;2.85;;
59756;SDS011;45631;51.962;5.974;2023-04-12T09:50:20;10.82;;;2.50;;
59756;SDS011;45631;51.962;5.974;2023-04-12T09:52:49;13.93;;;2.92;;
59756;SDS011;45631;51.962;5.974;2023-04-12T09:57:53;10.90;;;2.60;;
59756;SDS011;45631;51.962;5.974;2023-04-12T10:00:23;11.35;;;3.10;;
59756;SDS011;45631;51.962;5.974;2023-04-12T10:02:53;11.63;;;2.72;;
59756;SDS011;45631;51.962;5.974;2023-04-12T10:05:24;11.55;;;3.05;;
59756;SDS011;45631;51.962;5.974;2023-04-12T10:07:54;8.45;;;2.30;;
59756;SDS011;45631;51.962;5.974;2023-04-12T10:10:24;10.40;;;2.10;;
59756;SDS011;45631;51.962;5.974;2023-04-12T10:12:52;14.98;;;3.17;;
59756;SDS011;45631;51.962;5.974;2023-04-12T10:15:21;10.98;;;3.05;;
59756;SDS011;45631;51.962;5.974;2023-04-12T10:17:52;13.57;;;2.78;;
59756;SDS011;45631;51.962;5.974;2023-04-12T10:20:27;12.80;;;2.22;;
59756;SDS011;45631;51.962;5.974;2023-04-12T10:22:56;9.80;;;2.25;;
59756;SDS011;45631;51.962;5.974;2023-04-12T10:25:25;15.20;;;3.20;;
59756;SDS011;45631;51.962;5.974;2023-04-12T10:27:57;13.27;;;4.28;;
59756;SDS011;45631;51.962;5.974;2023-04-12T10:30:40;16.75;;;3.45;;
59756;SDS011;45631;51.962;5.974;2023-04-12T10:33:12;12.32;;;2.50;;
59756;SDS011;45631;51.962;5.974;2023-04-12T10:35:53;12.85;;;2.28;;
59756;SDS011;45631;51.962;5.974;2023-04-12T10:38:23;15.50;;;3.08;;
59756;SDS011;45631;51.962;5.974;2023-04-12T10:41:12;13.90;;;2.60;;
59756;SDS011;45631;51.962;5.974;2023-04-12T10:43:42;12.35;;;2.47;;
59756;SDS011;45631;51.962;5.974;2023-04-12T10:49:19;11.20;;;2.70;;
59756;SDS011;45631;51.962;5.974;2023-04-12T10:54:43;11.43;;;2.67;;
59756;SDS011;45631;51.962;5.974;2023-04-12T11:00:11;17.13;;;2.90;;
59756;SDS011;45631;51.962;5.974;2023-04-12T11:05:57;11.73;;;2.70;;
59756;SDS011;45631;51.962;5.974;2023-04-12T11:08:39;11.60;;;2.33;;
59756;SDS011;45631;51.962;5.974;2023-04-12T11:11:17;12.98;;;2.88;;
59756;SDS011;45631;51.962;5.974;2023-04-12T11:13:49;15.57;;;3.25;;
59756;SDS011;45631;51.962;5.974;2023-04-12T11:16:22;11.05;;;3.00;;
59756;SDS011;45631;51.962;5.974;2023-04-12T11:18:51;13.80;;;3.05;;
59756;SDS011;45631;51.962;5.974;2023-04-12T11:21:21;14.98;;;2.83;;
59756;SDS011;45631;51.962;5.974;2023-04-12T11:23:50;11.02;;;2.55;;
59756;SDS011;45631;51.962;5.974;2023-04-12T11:26:20;16.88;;;2.92;;
59756;SDS011;45631;51.962;5.974;2023-04-12T11:28:48;11.88;;;2.42;;
59756;SDS011;45631;51.962;5.974;2023-04-12T11:31:19;13.32;;;2.70;;
59756;SDS011;45631;51.962;5.974;2023-04-12T11:33:48;19.73;;;3.22;;
59756;SDS011;45631;51.962;5.974;2023-04-12T11:36:20;15.50;;;3.08;;
59756;SDS011;45631;51.962;5.974;2023-04-12T11:38:48;14.35;;;3.08;;
59756;SDS011;45631;51.962;5.974;2023-04-12T11:41:17;12.30;;;2.60;;
59756;SDS011;45631;51.962;5.974;2023-04-12T11:43:46;11.90;;;3.42;;
59756;SDS011;45631;51.962;5.974;2023-04-12T11:46:18;12.20;;;2.90;;
59756;SDS011;45631;51.962;5.974;2023-04-12T11:48:46;13.20;;;3.05;;
59756;SDS011;45631;51.962;5.974;2023-04-12T11:51:20;14.18;;;2.65;;
59756;SDS011;45631;51.962;5.974;2023-04-12T11:53:53;16.10;;;2.80;;
59756;SDS011;45631;51.962;5.974;2023-04-12T11:56:24;15.57;;;3.05;;
59756;SDS011;45631;51.962;5.974;2023-04-12T11:58:52;14.05;;;2.90;;
59756;SDS011;45631;51.962;5.974;2023-04-12T12:01:21;13.90;;;2.92;;
59756;SDS011;45631;51.962;5.974;2023-04-12T12:03:50;13.55;;;2.83;;
59756;SDS011;45631;51.962;5.974;2023-04-12T12:06:19;14.85;;;3.33;;
59756;SDS011;45631;51.962;5.974;2023-04-12T12:08:49;14.85;;;3.50;;
59756;SDS011;45631;51.962;5.974;2023-04-12T12:11:18;14.52;;;2.92;;
59756;SDS011;45631;51.962;5.974;2023-04-12T12:13:49;14.70;;;2.55;;
59756;SDS011;45631;51.962;5.974;2023-04-12T12:16:22;14.10;;;2.85;;
59756;SDS011;45631;51.962;5.974;2023-04-12T12:18:52;18.33;;;2.83;;
59756;SDS011;45631;51.962;5.974;2023-04-12T12:21:20;12.50;;;2.80;;
59756;SDS011;45631;51.962;5.974;2023-04-12T12:23:49;14.05;;;3.03;;
59756;SDS011;45631;51.962;5.974;2023-04-12T12:26:18;16.30;;;3.03;;
59756;SDS011;45631;51.962;5.974;2023-04-12T12:28:49;11.40;;;2.80;;
59756;SDS011;45631;51.962;5.974;2023-04-12T12:31:19;12.38;;;2.70;;
59756;SDS011;45631;51.962;5.974;2023-04-12T12:33:52;11.23;;;2.22;;
59756;SDS011;45631;51.962;5.974;2023-04-12T12:36:27;12.35;;;2.60;;
59756;SDS011;45631;51.962;5.974;2023-04-12T12:39:01;10.93;;;2.05;;
59756;SDS011;45631;51.962;5.974;2023-04-12T12:41:33;10.13;;;2.35;;
59756;SDS011;45631;51.962;5.974;2023-04-12T12:44:03;11.10;;;2.22;;
59756;SDS011;45631;51.962;5.974;2023-04-12T12:46:33;10.68;;;2.20;;
59756;SDS011;45631;51.962;5.974;2023-04-12T12:49:04;11.30;;;2.30;;
59756;SDS011;45631;51.962;5.974;2023-04-12T12:51:32;11.25;;;1.95;;
59756;SDS011;45631;51.962;5.974;2023-04-12T12:54:00;12.23;;;2.67;;
59756;SDS011;45631;51.962;5.974;2023-04-12T12:56:28;11.88;;;2.47;;
59756;SDS011;45631;51.962;5.974;2023-04-12T12:58:57;9.68;;;2.08;;
59756;SDS011;45631;51.962;5.974;2023-04-12T13:01:26;10.55;;;1.98;;
59756;SDS011;45631;51.962;5.974;2023-04-12T13:03:55;8.88;;;1.73;;
59756;SDS011;45631;51.962;5.974;2023-04-12T13:06:24;10.90;;;1.90;;
59756;SDS011;45631;51.962;5.974;2023-04-12T13:08:53;9.82;;;1.88;;
59756;SDS011;45631;51.962;5.974;2023-04-12T13:11:22;8.20;;;1.58;;
59756;SDS011;45631;51.962;5.974;2023-04-12T13:13:50;6.65;;;1.17;;
59756;SDS011;45631;51.962;5.974;2023-04-12T13:16:18;9.18;;;1.48;;
59756;SDS011;45631;51.962;5.974;2023-04-12T13:18:50;8.70;;;1.45;;
59756;SDS011;45631;51.962;5.974;2023-04-12T13:21:18;4.78;;;1.30;;
59756;SDS011;45631;51.962;5.974;2023-04-12T13:23:47;8.30;;;1.30;;
59756;SDS011;45631;51.962;5.974;2023-04-12T13:26:15;6.55;;;1.40;;
59756;SDS011;45631;51.962;5.974;2023-04-12T13:28:43;10.20;;;1.58;;
59756;SDS011;45631;51.962;5.974;2023-04-12T13:31:11;9.45;;;1.58;;
59756;SDS011;45631;51.962;5.974;2023-04-12T13:33:41;7.80;;;1.70;;
59756;SDS011;45631;51.962;5.974;2023-04-12T13:36:11;9.30;;;1.92;;
59756;SDS011;45631;51.962;5.974;2023-04-12T13:38:39;9.57;;;1.70;;
59756;SDS011;45631;51.962;5.974;2023-04-12T13:41:07;7.20;;;1.20;;
59756;SDS011;45631;51.962;5.974;2023-04-12T13:43:35;8.18;;;1.25;;
59756;SDS011;45631;51.962;5.974;2023-04-12T13:46:06;8.75;;;1.45;;
59756;SDS011;45631;51.962;5.974;2023-04-12T13:48:34;8.55;;;1.60;;
59756;SDS011;45631;51.962;5.974;2023-04-12T13:51:03;7.85;;;1.60;;
59756;SDS011;45631;51.962;5.974;2023-04-12T13:53:32;7.25;;;1.60;;
59756;SDS011;45631;51.962;5.974;2023-04-12T13:56:01;8.93;;;1.55;;
59756;SDS011;45631;51.962;5.974;2023-04-12T13:58:30;11.98;;;2.17;;
59756;SDS011;45631;51.962;5.974;2023-04-12T14:00:58;9.15;;;1.63;;
59756;SDS011;45631;51.962;5.974;2023-04-12T14:03:26;8.48;;;1.67;;
59756;SDS011;45631;51.962;5.974;2023-04-12T14:05:55;7.30;;;1.30;;
59756;SDS011;45631;51.962;5.974;2023-04-12T14:08:23;11.50;;;1.88;;
59756;SDS011;45631;51.962;5.974;2023-04-12T14:10:56;6.40;;;1.40;;
59756;SDS011;45631;51.962;5.974;2023-04-12T14:13:25;8.93;;;1.65;;
59756;SDS011;45631;51.962;5.974;2023-04-12T14:15:53;9.63;;;1.45;;
59756;SDS011;45631;51.962;5.974;2023-04-12T14:18:21;7.75;;;1.63;;
59756;SDS011;45631;51.962;5.974;2023-04-12T14:20:52;7.45;;;1.17;;
59756;SDS011;45631;51.962;5.974;2023-04-12T14:23:20;6.00;;;1.40;;
59756;SDS011;45631;51.962;5.974;2023-04-12T14:25:50;8.23;;;1.13;;
59756;SDS011;45631;51.962;5.974;2023-04-12T14:28:20;5.38;;;1.20;;
59756;SDS011;45631;51.962;5.974;2023-04-12T14:30:53;8.68;;;1.70;;
59756;SDS011;45631;51.962;5.974;2023-04-12T14:33:21;8.88;;;1.40;;
59756;SDS011;45631;51.962;5.974;2023-04-12T14:35:50;6.63;;;1.48;;
59756;SDS011;45631;51.962;5.974;2023-04-12T14:38:19;7.35;;;1.23;;
59756;SDS011;45631;51.962;5.974;2023-04-12T14:40:48;4.60;;;1.13;;
59756;SDS011;45631;51.962;5.974;2023-04-12T14:43:17;7.13;;;1.33;;
59756;SDS011;45631;51.962;5.974;2023-04-12T14:45:49;5.55;;;1.35;;
59756;SDS011;45631;51.962;5.974;2023-04-12T14:48:17;8.75;;;1.45;;
59756;SDS011;45631;51.962;5.974;2023-04-12T14:50:46;5.72;;;1.30;;
59756;SDS011;45631;51.962;5.974;2023-04-12T14:53:14;6.85;;;1.60;;
59756;SDS011;45631;51.962;5.974;2023-04-12T14:55:45;4.82;;;1.08;;
59756;SDS011;45631;51.962;5.974;2023-04-12T14:58:13;3.85;;;0.93;;
59756;SDS011;45631;51.962;5.974;2023-04-12T15:00:41;5.03;;;1.33;;
59756;SDS011;45631;51.962;5.974;2023-04-12T15:03:11;9.80;;;2.00;;
59756;SDS011;45631;51.962;5.974;2023-04-12T15:05:40;5.68;;;1.30;;
59756;SDS011;45631;51.962;5.974;2023-04-12T15:08:08;5.85;;;1.48;;
59756;SDS011;45631;51.962;5.974;2023-04-12T15:10:36;8.35;;;1.75;;
59756;SDS011;45631;51.962;5.974;2023-04-12T15:13:04;5.40;;;1.30;;